createdAt,value
2023-08-29T00:00:06.246Z,70.34
2023-08-29T00:02:33.707Z,70.42
2023-08-29T00:05:00.359Z,70.34
2023-08-29T00:07:28.359Z,70.68
2023-08-29T00:09:54.839Z,71.28
2023-08-29T00:12:21.796Z,71.45
2023-08-29T00:14:48.405Z,70.95
2023-08-29T00:17:17.449Z,71.06
2023-08-29T00:19:43.910Z,71.61
2023-08-29T00:22:10.400Z,71.33
2023-08-29T00:24:36.855Z,71.31
2023-08-29T00:27:04.105Z,72.18
2023-08-29T00:29:30.581Z,71.67
2023-08-29T00:31:57.065Z,71.28
2023-08-29T00:34:23.551Z,71.29
2023-08-29T00:36:50.237Z,71.17
2023-08-29T00:39:16.692Z,70.95
2023-08-29T00:41:43.102Z,71.13
2023-08-29T00:44:09.515Z,71.25
2023-08-29T00:46:36.266Z,71.21
2023-08-29T00:49:02.988Z,70.22
2023-08-29T00:51:29.474Z,70.91
2023-08-29T00:53:56.097Z,70.84
2023-08-29T00:56:22.622Z,70.81
2023-08-29T00:58:49.240Z,71.53
2023-08-29T01:01:18.133Z,71.46
2023-08-29T01:03:45.034Z,71.73
2023-08-29T01:06:12.423Z,71.51
2023-08-29T01:08:39.186Z,71.42
2023-08-29T01:11:15.259Z,71.94
2023-08-29T01:13:47.694Z,71.70
2023-08-29T01:16:18.555Z,71.15
2023-08-29T01:18:46.490Z,71.05
2023-08-29T01:21:36.581Z,71.03
2023-08-29T01:24:08.551Z,71.06
2023-08-29T01:26:35.737Z,71.37
2023-08-29T01:29:03.890Z,71.06
2023-08-29T01:31:33.072Z,72.03
2023-08-29T01:34:00.022Z,71.38
2023-08-29T01:36:42.580Z,71.07
2023-08-29T01:39:09.181Z,71.46
2023-08-29T01:41:35.696Z,72.89
2023-08-29T01:44:06.375Z,72.45
2023-08-29T01:46:32.899Z,71.51
2023-08-29T01:49:02.711Z,71.42
2023-08-29T01:51:29.759Z,72.05
2023-08-29T01:53:57.387Z,72.06
2023-08-29T01:56:26.949Z,73.15
2023-08-29T01:58:55.373Z,73.09
2023-08-29T02:01:23.866Z,72.38
2023-08-29T02:03:51.736Z,73.66
2023-08-29T02:06:18.283Z,72.73
2023-08-29T02:08:45.744Z,72.06
2023-08-29T02:11:12.215Z,72.06
2023-08-29T02:13:38.633Z,72.34
2023-08-29T02:16:05.171Z,71.61
2023-08-29T02:18:31.640Z,71.80
2023-08-29T02:20:58.098Z,71.65
2023-08-29T02:23:24.612Z,71.66
2023-08-29T02:26:05.069Z,70.82
2023-08-29T02:28:34.346Z,70.82
2023-08-29T02:31:05.006Z,70.56
2023-08-29T02:33:32.409Z,70.66
2023-08-29T02:35:58.970Z,70.59
2023-08-29T02:38:25.480Z,70.61
2023-08-29T02:40:51.937Z,70.65
2023-08-29T02:43:18.398Z,70.70
2023-08-29T02:45:44.910Z,70.95
2023-08-29T02:48:11.385Z,70.38
2023-08-29T02:50:38.253Z,70.44
2023-08-29T02:53:04.875Z,70.70
2023-08-29T02:55:31.346Z,70.73
2023-08-29T02:57:57.785Z,71.56
2023-08-29T03:00:24.244Z,71.19
2023-08-29T03:02:50.815Z,70.98
2023-08-29T03:05:17.310Z,70.32
2023-08-29T03:07:43.815Z,70.50
2023-08-29T03:10:10.678Z,70.69
2023-08-29T03:12:37.138Z,70.72
2023-08-29T03:15:03.775Z,70.39
2023-08-29T03:17:30.313Z,71.03
2023-08-29T03:19:56.796Z,71.29
2023-08-29T03:22:23.230Z,70.86
2023-08-29T03:24:49.648Z,70.91
2023-08-29T03:27:16.122Z,71.07
2023-08-29T03:29:42.584Z,70.75
2023-08-29T03:32:09.100Z,70.92
2023-08-29T03:34:35.544Z,70.46
2023-08-29T03:37:02.039Z,70.50
2023-08-29T03:39:28.476Z,71.17
2023-08-29T03:41:54.955Z,71.12
2023-08-29T03:44:21.415Z,71.08
2023-08-29T03:46:47.864Z,71.69
2023-08-29T03:49:14.314Z,71.54
2023-08-29T03:51:40.738Z,72.20
2023-08-29T03:54:07.226Z,71.68
2023-08-29T03:56:34.692Z,71.87
2023-08-29T03:59:03.036Z,71.62
2023-08-29T04:01:30.533Z,72.01
2023-08-29T04:03:57.295Z,72.08
2023-08-29T04:06:23.847Z,71.69
2023-08-29T04:08:50.306Z,73.01
2023-08-29T04:11:16.768Z,72.08
2023-08-29T04:13:43.212Z,71.70
2023-08-29T04:16:09.884Z,71.07
2023-08-29T04:18:36.305Z,71.76
2023-08-29T04:21:02.788Z,72.82
2023-08-29T04:23:29.256Z,72.58
2023-08-29T04:26:00.559Z,71.78
2023-08-29T04:28:27.384Z,72.23
2023-08-29T04:30:54.099Z,72.08
2023-08-29T04:33:20.629Z,72.35
2023-08-29T04:35:51.210Z,72.18
2023-08-29T04:38:17.648Z,71.83
2023-08-29T04:40:44.318Z,71.70
2023-08-29T04:43:10.753Z,71.07
2023-08-29T04:45:37.842Z,71.67
2023-08-29T04:48:05.021Z,71.91
2023-08-29T04:50:31.748Z,71.96
2023-08-29T04:52:58.201Z,71.79
2023-08-29T04:55:24.672Z,71.24
2023-08-29T04:57:53.011Z,71.17
2023-08-29T05:00:19.659Z,71.17
2023-08-29T05:02:46.184Z,70.75
2023-08-29T05:05:12.656Z,71.19
2023-08-29T05:07:39.118Z,71.46
2023-08-29T05:10:06.198Z,70.98
2023-08-29T05:12:32.623Z,71.56
2023-08-29T05:14:59.132Z,70.96
2023-08-29T05:17:26.646Z,71.29
2023-08-29T05:19:53.318Z,71.88
2023-08-29T05:22:20.173Z,71.11
2023-08-29T05:24:46.827Z,70.77
2023-08-29T05:27:13.516Z,70.78
2023-08-29T05:29:40.202Z,71.05
2023-08-29T05:32:06.919Z,70.76
2023-08-29T05:34:33.372Z,70.63
2023-08-29T05:36:59.809Z,71.39
2023-08-29T05:39:26.228Z,72.28
2023-08-29T05:41:52.664Z,71.95
2023-08-29T05:44:19.067Z,71.94
2023-08-29T05:46:45.620Z,72.22
2023-08-29T05:49:12.137Z,71.48
2023-08-29T05:51:38.567Z,72.30
2023-08-29T05:54:05.122Z,73.57
2023-08-29T05:56:31.580Z,73.17
2023-08-29T05:58:58.055Z,72.37
2023-08-29T06:01:24.575Z,72.57
2023-08-29T06:03:51.125Z,72.49
2023-08-29T06:06:17.809Z,72.06
2023-08-29T06:08:45.651Z,71.62
2023-08-29T06:11:12.333Z,71.63
2023-08-29T06:13:38.926Z,71.19
2023-08-29T06:16:06.054Z,70.80
2023-08-29T06:18:34.173Z,71.95
2023-08-29T06:21:01.132Z,71.86
2023-08-29T06:23:27.565Z,73.60
2023-08-29T06:25:55.220Z,72.86
2023-08-29T06:28:21.645Z,72.15
2023-08-29T06:30:48.112Z,71.76
2023-08-29T06:33:14.619Z,70.09
2023-08-29T06:35:41.074Z,69.68
2023-08-29T06:38:08.768Z,70.07
2023-08-29T06:40:36.267Z,69.42
2023-08-29T06:43:03.299Z,68.98
2023-08-29T06:45:29.771Z,68.84
2023-08-29T06:47:56.326Z,69.79
2023-08-29T06:50:22.835Z,69.99
2023-08-29T06:52:49.262Z,70.48
2023-08-29T06:55:17.242Z,71.87
2023-08-29T06:57:43.680Z,73.39
2023-08-29T07:00:12.079Z,73.61
2023-08-29T07:02:38.783Z,73.75
2023-08-29T07:05:06.020Z,74.97
2023-08-29T07:07:32.481Z,74.27
2023-08-29T07:09:58.933Z,72.63
2023-08-29T07:12:25.354Z,70.93
2023-08-29T07:14:51.764Z,70.01
2023-08-29T07:17:18.538Z,69.37
2023-08-29T07:19:45.042Z,69.78
2023-08-29T07:22:23.385Z,70.50
2023-08-29T07:24:51.126Z,68.26
2023-08-29T07:27:17.648Z,68.86
2023-08-29T07:29:44.328Z,67.73
2023-08-29T07:32:10.848Z,66.75
2023-08-29T07:34:40.482Z,66.34
2023-08-29T07:37:07.596Z,66.05
2023-08-29T07:39:34.142Z,66.28
2023-08-29T07:42:01.226Z,69.14
2023-08-29T07:44:27.729Z,67.11
2023-08-29T07:47:12.137Z,67.17
2023-08-29T07:49:40.426Z,65.68
2023-08-29T07:52:07.253Z,63.46
2023-08-29T07:54:33.719Z,63.75
2023-08-29T07:57:00.167Z,65.30
2023-08-29T07:59:26.633Z,66.41
2023-08-29T08:01:53.380Z,66.28
2023-08-29T08:04:20.001Z,66.47
2023-08-29T08:06:46.518Z,67.26
2023-08-29T08:09:14.084Z,66.63
2023-08-29T08:11:40.615Z,66.06
2023-08-29T08:14:07.058Z,66.12
2023-08-29T08:16:33.533Z,66.29
2023-08-29T08:18:59.986Z,65.96
2023-08-29T08:21:26.429Z,66.29
2023-08-29T08:23:53.332Z,66.42
2023-08-29T08:26:19.771Z,65.62
2023-08-29T08:28:46.226Z,64.73
2023-08-29T08:31:13.094Z,65.51
2023-08-29T08:33:41.931Z,66.56
2023-08-29T08:36:08.974Z,67.23
2023-08-29T08:38:35.526Z,66.64
2023-08-29T08:41:02.187Z,66.52
2023-08-29T08:43:30.690Z,66.67
2023-08-29T08:45:58.937Z,67.27
2023-08-29T08:48:25.961Z,66.64
2023-08-29T08:50:52.545Z,66.36
2023-08-29T08:53:22.740Z,67.17
2023-08-29T08:55:51.270Z,67.47
2023-08-29T08:58:19.574Z,66.66
2023-08-29T09:00:46.181Z,67.59
2023-08-29T09:03:15.800Z,66.65
2023-08-29T09:05:43.234Z,66.47
2023-08-29T09:08:09.977Z,65.81
2023-08-29T09:10:42.782Z,64.11
2023-08-29T09:13:16.816Z,64.74
2023-08-29T09:15:43.770Z,64.51
2023-08-29T09:18:14.721Z,63.62
2023-08-29T09:20:46.896Z,63.19
2023-08-29T09:23:24.060Z,64.08
2023-08-29T09:25:58.025Z,64.33
2023-08-29T09:28:28.597Z,65.62
2023-08-29T09:30:55.132Z,65.94
2023-08-29T09:33:25.084Z,65.26
2023-08-29T09:35:51.527Z,64.60
2023-08-29T09:38:19.490Z,64.56
2023-08-29T09:40:49.770Z,63.40
2023-08-29T09:43:18.201Z,63.50
2023-08-29T09:45:54.377Z,64.15
2023-08-29T09:48:21.186Z,60.86
2023-08-29T09:50:49.880Z,61.33
2023-08-29T09:53:18.111Z,59.08
2023-08-29T09:55:47.576Z,60.45
2023-08-29T09:58:16.293Z,61.37
2023-08-29T10:00:44.220Z,61.80
2023-08-29T10:03:12.148Z,61.66
2023-08-29T10:05:41.732Z,61.03
2023-08-29T10:08:40.042Z,62.13
2023-08-29T10:11:07.284Z,61.00
2023-08-29T10:13:35.817Z,59.14
2023-08-29T10:16:04.855Z,58.83
2023-08-29T10:18:33.114Z,60.45
2023-08-29T10:21:03.618Z,59.93
2023-08-29T10:23:31.708Z,58.47
2023-08-29T10:26:02.224Z,57.15
2023-08-29T10:28:30.248Z,56.96
2023-08-29T10:31:01.956Z,56.35
2023-08-29T10:33:28.707Z,54.99
2023-08-29T10:35:55.249Z,52.26
2023-08-29T10:38:22.265Z,50.49
2023-08-29T10:40:48.764Z,48.28
2023-08-29T10:43:19.989Z,45.35
2023-08-29T10:46:03.058Z,44.60
2023-08-29T10:48:52.612Z,44.02
2023-08-29T10:51:26.566Z,45.24
2023-08-29T10:53:55.199Z,42.15
2023-08-29T10:56:39.348Z,42.54
2023-08-29T10:59:06.123Z,44.76
2023-08-29T11:01:33.111Z,43.71
2023-08-29T11:04:12.211Z,45.36
2023-08-29T11:06:53.695Z,43.93
2023-08-29T11:09:24.665Z,45.60
2023-08-29T11:12:10.865Z,44.17
2023-08-29T11:14:57.035Z,42.39
2023-08-29T11:17:24.886Z,41.72
2023-08-29T11:20:03.370Z,40.74
2023-08-29T11:22:32.832Z,42.24
2023-08-29T11:24:59.617Z,43.20
2023-08-29T11:27:29.869Z,40.65
2023-08-29T11:30:11.220Z,39.83
2023-08-29T11:32:50.570Z,37.74
2023-08-29T11:35:17.114Z,39.22
2023-08-29T11:37:43.618Z,40.86
2023-08-29T11:40:13.782Z,39.16
2023-08-29T11:43:09.646Z,39.99
2023-08-29T11:45:46.969Z,41.65
2023-08-29T11:48:22.662Z,42.71
2023-08-29T11:50:49.159Z,40.73
2023-08-29T11:53:28.039Z,39.45
2023-08-29T11:55:54.679Z,39.02
2023-08-29T11:58:25.019Z,38.38
2023-08-29T12:00:53.261Z,37.22
2023-08-29T12:03:21.456Z,38.93
2023-08-29T12:05:48.679Z,36.40
2023-08-29T12:08:16.012Z,37.33
2023-08-29T12:10:53.846Z,40.31
2023-08-29T12:13:20.672Z,40.66
2023-08-29T12:15:47.209Z,39.70
2023-08-29T12:18:27.086Z,37.41
2023-08-29T12:21:10.543Z,35.63
2023-08-29T12:23:37.003Z,34.59
2023-08-29T12:26:04.556Z,37.02
2023-08-29T12:28:30.975Z,35.48
2023-08-29T12:30:58.030Z,35.59
2023-08-29T12:33:24.780Z,35.76
2023-08-29T12:35:51.737Z,36.24
2023-08-29T12:38:19.361Z,35.72
2023-08-29T12:40:46.472Z,36.24
2023-08-29T12:43:14.052Z,36.49
2023-08-29T12:45:52.757Z,37.40
2023-08-29T12:48:25.263Z,38.16
2023-08-29T12:50:51.748Z,38.00
2023-08-29T12:53:18.283Z,37.23
2023-08-29T12:55:44.911Z,36.31
2023-08-29T12:58:11.541Z,36.10
2023-08-29T13:00:39.307Z,37.07
2023-08-29T13:03:06.851Z,34.23
2023-08-29T13:05:33.673Z,36.02
2023-08-29T13:08:00.161Z,36.50
2023-08-29T13:10:26.675Z,36.62
2023-08-29T13:12:53.475Z,34.28
2023-08-29T13:15:20.122Z,32.39
2023-08-29T13:17:48.279Z,33.08
2023-08-29T13:20:14.917Z,34.26
2023-08-29T13:22:41.796Z,35.94
2023-08-29T13:25:08.869Z,36.58
2023-08-29T13:27:36.287Z,37.54
2023-08-29T13:30:02.864Z,36.96
2023-08-29T13:32:29.360Z,34.75
2023-08-29T13:34:55.848Z,34.57
2023-08-29T13:37:22.294Z,32.92
2023-08-29T13:39:56.101Z,32.64
2023-08-29T13:42:23.557Z,31.00
2023-08-29T13:44:55.707Z,31.07
2023-08-29T13:47:23.336Z,32.53
2023-08-29T13:49:49.845Z,33.72
2023-08-29T13:52:16.323Z,36.47
2023-08-29T13:54:42.765Z,38.62
2023-08-29T13:57:09.213Z,36.23
2023-08-29T13:59:35.672Z,35.07
2023-08-29T14:02:02.798Z,34.43
2023-08-29T14:04:29.353Z,33.64
2023-08-29T14:06:55.804Z,35.89
2023-08-29T14:09:22.266Z,33.92
2023-08-29T14:11:48.687Z,35.94
2023-08-29T14:14:15.164Z,33.72
2023-08-29T14:16:43.509Z,33.47
2023-08-29T14:19:10.696Z,34.34
2023-08-29T14:21:37.233Z,35.95
2023-08-29T14:24:03.851Z,37.65
2023-08-29T14:26:30.297Z,38.84
2023-08-29T14:28:56.765Z,38.29
2023-08-29T14:31:24.386Z,38.85
2023-08-29T14:33:51.860Z,38.23
2023-08-29T14:36:18.840Z,41.77
2023-08-29T14:38:45.266Z,40.13
2023-08-29T14:41:13.507Z,40.19
2023-08-29T14:43:40.880Z,42.52
2023-08-29T14:46:08.078Z,40.48
2023-08-29T14:48:36.434Z,40.53
2023-08-29T14:51:02.916Z,41.07
2023-08-29T14:53:30.383Z,42.51
2023-08-29T14:55:57.546Z,42.36
2023-08-29T14:58:25.627Z,43.10
2023-08-29T15:00:52.177Z,43.48
2023-08-29T15:03:18.755Z,43.17
2023-08-29T15:05:45.397Z,43.60
2023-08-29T15:08:11.941Z,43.51
2023-08-29T15:10:38.420Z,44.83
2023-08-29T15:13:06.222Z,45.65
2023-08-29T15:15:32.660Z,46.16
2023-08-29T15:17:59.218Z,43.23
2023-08-29T15:20:26.243Z,43.72
2023-08-29T15:22:53.022Z,43.07
2023-08-29T15:25:19.994Z,44.27
2023-08-29T15:27:46.479Z,44.02
2023-08-29T15:30:13.391Z,43.45
2023-08-29T15:32:40.060Z,43.12
2023-08-29T15:35:08.436Z,45.45
2023-08-29T15:37:34.973Z,44.07
2023-08-29T15:40:01.489Z,43.86
2023-08-29T15:42:27.968Z,44.24
2023-08-29T15:44:54.393Z,44.37
2023-08-29T15:47:22.722Z,46.23
2023-08-29T15:49:49.230Z,44.95
2023-08-29T15:52:15.644Z,43.55
2023-08-29T15:54:42.081Z,45.57
2023-08-29T15:57:08.576Z,45.80
2023-08-29T15:59:34.999Z,44.38
2023-08-29T16:02:01.546Z,46.09
2023-08-29T16:04:28.021Z,46.09
2023-08-29T16:06:54.661Z,45.65
2023-08-29T16:09:21.111Z,48.07
2023-08-29T16:11:47.597Z,46.53
2023-08-29T16:14:14.130Z,47.36
2023-08-29T16:16:40.599Z,45.83
2023-08-29T16:19:07.052Z,47.10
2023-08-29T16:21:33.800Z,46.46
2023-08-29T16:24:00.247Z,47.25
2023-08-29T16:26:26.863Z,47.50
2023-08-29T16:28:53.318Z,48.78
2023-08-29T16:31:19.843Z,49.95
2023-08-29T16:33:46.401Z,52.42
2023-08-29T16:36:12.838Z,54.20
2023-08-29T16:38:39.362Z,54.28
2023-08-29T16:41:05.859Z,54.56
2023-08-29T16:43:32.383Z,55.27
2023-08-29T16:45:58.872Z,54.72
2023-08-29T16:48:25.372Z,55.78
2023-08-29T16:50:52.202Z,55.16
2023-08-29T16:53:18.708Z,55.83
2023-08-29T16:55:46.176Z,56.29
2023-08-29T16:58:12.834Z,56.42
2023-08-29T17:00:39.854Z,56.33
2023-08-29T17:03:11.162Z,56.43
2023-08-29T17:05:38.696Z,56.22
2023-08-29T17:08:07.196Z,55.19
2023-08-29T17:10:34.252Z,55.57
2023-08-29T17:13:00.769Z,55.72
2023-08-29T17:15:27.801Z,55.90
2023-08-29T17:17:54.317Z,55.84
2023-08-29T17:20:21.455Z,56.69
2023-08-29T17:22:49.711Z,55.91
2023-08-29T17:25:16.518Z,56.29
2023-08-29T17:27:43.345Z,56.65
2023-08-29T17:30:10.101Z,56.51
2023-08-29T17:32:36.560Z,56.81
2023-08-29T17:35:03.552Z,56.28
2023-08-29T17:37:30.034Z,57.52
2023-08-29T17:39:56.593Z,58.40
2023-08-29T17:42:23.009Z,57.80
2023-08-29T17:44:51.319Z,57.80
2023-08-29T17:47:17.800Z,57.11
2023-08-29T17:49:44.509Z,57.84
2023-08-29T17:52:11.633Z,58.40
2023-08-29T17:54:38.182Z,58.01
2023-08-29T17:57:04.678Z,59.45
2023-08-29T17:59:31.183Z,60.12
2023-08-29T18:01:57.701Z,60.62
2023-08-29T18:04:24.201Z,61.04
2023-08-29T18:06:50.701Z,61.16
2023-08-29T18:09:19.223Z,62.12
2023-08-29T18:11:45.780Z,61.97
2023-08-29T18:14:12.303Z,62.86
2023-08-29T18:16:38.806Z,62.98
2023-08-29T18:19:05.365Z,63.31
2023-08-29T18:21:31.870Z,63.94
2023-08-29T18:23:58.364Z,64.41
2023-08-29T18:26:24.872Z,64.36
2023-08-29T18:28:51.429Z,64.58
2023-08-29T18:31:18.123Z,64.54
2023-08-29T18:33:44.638Z,65.39
2023-08-29T18:36:11.876Z,64.89
2023-08-29T18:38:38.684Z,65.24
2023-08-29T18:41:05.149Z,65.08
2023-08-29T18:43:31.641Z,65.65
2023-08-29T18:45:58.428Z,65.96
2023-08-29T18:48:25.046Z,66.55
2023-08-29T18:50:51.833Z,66.77
2023-08-29T18:53:18.311Z,67.84
2023-08-29T18:55:45.120Z,67.59
2023-08-29T18:58:12.584Z,67.50
2023-08-29T19:00:39.247Z,68.24
2023-08-29T19:03:07.097Z,68.69
2023-08-29T19:05:36.359Z,68.97
2023-08-29T19:08:05.437Z,68.11
2023-08-29T19:10:32.247Z,68.50
2023-08-29T19:12:58.699Z,68.59
2023-08-29T19:15:25.474Z,68.32
2023-08-29T19:17:52.565Z,67.93
2023-08-29T19:20:19.070Z,68.24
2023-08-29T19:22:45.531Z,67.83
2023-08-29T19:25:11.998Z,68.23
2023-08-29T19:27:38.501Z,67.59
2023-08-29T19:30:08.938Z,68.44
2023-08-29T19:32:36.244Z,68.71
2023-08-29T19:35:05.069Z,69.25
2023-08-29T19:37:32.327Z,68.50
2023-08-29T19:39:59.074Z,68.85
2023-08-29T19:42:25.554Z,69.22
2023-08-29T19:44:52.122Z,69.75
2023-08-29T19:47:20.064Z,69.90
2023-08-29T19:49:48.499Z,70.46
2023-08-29T19:52:15.222Z,69.56
2023-08-29T19:54:41.685Z,68.97
2023-08-29T19:57:08.147Z,68.74
2023-08-29T19:59:36.322Z,68.47
2023-08-29T20:02:03.143Z,68.40
2023-08-29T20:04:29.701Z,69.70
2023-08-29T20:06:56.184Z,70.28
2023-08-29T20:09:23.601Z,69.90
2023-08-29T20:11:50.251Z,69.47
2023-08-29T20:14:16.713Z,69.90
2023-08-29T20:16:43.260Z,69.88
2023-08-29T20:19:10.512Z,69.99
2023-08-29T20:21:36.941Z,69.48
2023-08-29T20:24:03.586Z,69.22
2023-08-29T20:26:31.406Z,70.08
2023-08-29T20:29:00.249Z,70.54
2023-08-29T20:31:27.006Z,69.93
2023-08-29T20:33:53.427Z,70.03
2023-08-29T20:36:19.914Z,71.56
2023-08-29T20:38:46.345Z,70.23
2023-08-29T20:41:13.177Z,69.93
2023-08-29T20:43:39.675Z,69.91
2023-08-29T20:46:06.129Z,69.25
2023-08-29T20:48:32.571Z,69.18
2023-08-29T20:51:01.757Z,69.74
2023-08-29T20:53:36.049Z,69.40
2023-08-29T20:56:03.716Z,69.26
2023-08-29T20:58:30.294Z,69.89
2023-08-29T21:01:00.772Z,69.55
2023-08-29T21:03:30.160Z,70.42
2023-08-29T21:05:58.086Z,70.86
2023-08-29T21:08:25.571Z,70.21
2023-08-29T21:10:52.911Z,70.91
2023-08-29T21:13:20.849Z,70.51
2023-08-29T21:15:48.334Z,69.59
2023-08-29T21:18:18.714Z,70.54
2023-08-29T21:20:55.814Z,71.32
2023-08-29T21:23:22.719Z,70.75
2023-08-29T21:25:49.975Z,69.91
2023-08-29T21:28:17.748Z,70.24
2023-08-29T21:30:45.355Z,70.25
2023-08-29T21:33:12.162Z,69.41
2023-08-29T21:35:40.026Z,69.26
2023-08-29T21:38:07.791Z,69.61
2023-08-29T21:40:38.643Z,69.76
2023-08-29T21:43:10.820Z,69.79
2023-08-29T21:45:38.607Z,69.77
2023-08-29T21:48:07.267Z,69.60
2023-08-29T21:50:41.108Z,69.61
2023-08-29T21:53:08.955Z,69.79
2023-08-29T21:55:36.869Z,69.62
2023-08-29T21:58:04.827Z,69.83
2023-08-29T22:00:32.428Z,70.67
2023-08-29T22:03:00.374Z,71.60
2023-08-29T22:05:29.840Z,71.86
2023-08-29T22:07:56.858Z,71.53
2023-08-29T22:10:23.458Z,71.28
2023-08-29T22:12:50.653Z,71.55
2023-08-29T22:15:17.441Z,70.91
2023-08-29T22:17:45.470Z,70.41
2023-08-29T22:20:12.982Z,69.95
2023-08-29T22:22:40.142Z,70.21
2023-08-29T22:25:07.140Z,70.02
2023-08-29T22:27:33.570Z,70.42
2023-08-29T22:29:59.981Z,70.19
2023-08-29T22:32:26.474Z,69.95
2023-08-29T22:34:53.255Z,69.88
2023-08-29T22:37:19.706Z,70.66
2023-08-29T22:39:48.402Z,70.74
2023-08-29T22:42:15.436Z,70.80
2023-08-29T22:44:43.894Z,70.65
2023-08-29T22:47:16.652Z,70.49
2023-08-29T22:49:44.213Z,70.83
2023-08-29T22:52:10.808Z,71.20
2023-08-29T22:54:37.259Z,72.26
2023-08-29T22:57:03.959Z,71.88
2023-08-29T22:59:30.680Z,71.78
2023-08-29T23:01:58.671Z,70.90
2023-08-29T23:04:28.201Z,71.49
2023-08-29T23:07:05.282Z,70.90
2023-08-29T23:09:32.843Z,70.90
2023-08-29T23:11:59.527Z,70.62
2023-08-29T23:14:28.187Z,70.76
2023-08-29T23:16:55.906Z,70.45
2023-08-29T23:19:26.638Z,70.17
2023-08-29T23:21:53.955Z,70.47
2023-08-29T23:24:21.041Z,70.38
2023-08-29T23:26:48.866Z,70.05
2023-08-29T23:29:15.441Z,70.91
2023-08-29T23:31:42.007Z,71.07
2023-08-29T23:34:09.352Z,71.16
2023-08-29T23:36:35.872Z,71.08
2023-08-29T23:39:02.779Z,70.61
2023-08-29T23:41:29.860Z,70.32
2023-08-29T23:43:56.306Z,70.75
2023-08-29T23:46:22.903Z,70.84
2023-08-29T23:48:49.476Z,71.04
2023-08-29T23:51:16.167Z,70.57
2023-08-29T23:53:42.665Z,70.61
2023-08-29T23:56:09.129Z,70.62
2023-08-29T23:58:35.594Z,70.63
